Eizo Maru — JD2944 — position and weather

sailwx.info

Track history (hours):
 
Tides and Currents Weather Stations Pressure Air Temp Water Temp Dewpoint Dewpoint Depression Visibility Wind Speed Wind Dir Waves Ship Positions

Eizo Maru

Last reported at 2016-Oct-01 04:33 UTC. Time now 2016-Oct-01 13:53 UTC.
Position N 35°18' E 139°44'.

Length 80 m; draft 5.2 m.

Type: Tanker. MMSI: 431000976.

Date/timePositionNaut miles runAvg speedWind from/ knotsBaromVisibWave heightAir tempDewpointWater temp
2016-Oct-01 04:33N 35°18' E 139°44'1211.6
2016-Oct-01 03:34N 35°29' E 139°48'2 0.6
2016-Oct-01 00:32N 35°31' E 139°46'3 1.6
2016-Sep-30 22:32N 35°30' E 139°50'0 0.0
2016-Sep-30 20:32N 35°30' E 139°50'0 0.0
2016-Sep-30 17:32N 35°30' E 139°50'0 0.0
2016-Sep-30 16:32N 35°30' E 139°50'0 0.0
2016-Sep-30 14:32N 35°30' E 139°50'0 0.0
2016-Sep-30 13:32N 35°30' E 139°50'0 0.0
2016-Sep-30 10:32N 35°30' E 139°50'0 0.0
2016-Sep-30 08:32N 35°30' E 139°50'0 0.0
2016-Sep-30 06:32N 35°30' E 139°50'1 0.5
2016-Sep-30 03:33N 35°29' E 139°49'1212.2
2016-Sep-30 02:33N 35°17' E 139°45'37 7.2
2016-Sep-29 21:29N 35°13' E 140°30'2914.3
2016-Sep-29 19:26N 35°37' E 140°51'  
2016-Sep-27 13:27N 35°23' E 140°38'41 3.2
2016-Sep-27 00:31N 35°29' E 139°48'16 0.4
2016-Sep-25 10:31N 35°13' E 139°46'1212.3
2016-Sep-25 09:33N 35°24' E 139°43'16 8.1
2016-Sep-25 07:32N 35°30' E 140°02'0 0.0
2016-Sep-25 04:29N 35°30' E 140°02'3 0.7
2016-Sep-25 00:30N 35°31' E 139°59'0 0.0
2016-Sep-24 22:33N 35°31' E 139°59'0 0.0
2016-Sep-24 21:12N 35°31' E 139°59'0 0.0
2016-Sep-24 19:32N 35°31' E 139°59'0 0.0
2016-Sep-24 18:27N 35°31' E 139°59'0 0.0
2016-Sep-24 17:32N 35°31' E 139°59'0 0.0
2016-Sep-24 16:32N 35°31' E 139°59'0 0.0
2016-Sep-24 14:29N 35°31' E 139°59'0 0.0
2016-Sep-24 12:32N 35°31' E 139°59'0 0.0
2016-Sep-24 10:29N 35°31' E 139°59'0 0.0
2016-Sep-24 09:20N 35°31' E 139°59'0 0.0
2016-Sep-24 03:32N 35°31' E 139°59'0 0.0
2016-Sep-24 02:29N 35°31' E 139°59'0 0.0
2016-Sep-24 01:33N 35°31' E 139°59'1312.6
2016-Sep-24 00:33N 35°24' E 139°46'  
Track history (hours):
 
Tides and Currents Weather Stations Pressure Air Temp Water Temp Dewpoint Dewpoint Depression Visibility Wind Speed Wind Dir Waves Ship Positions

Eizo Maru

Last reported at 2016-Oct-01 04:33 UTC. Time now 2016-Oct-01 13:53 UTC.
Position N 35°18' E 139°44'.

Length 80 m; draft 5.2 m.

Type: Tanker. MMSI: 431000976.

Date/timePositionNaut miles runAvg speedWind from/ knotsBaromVisibWave heightAir tempDewpointWater temp
2016-Oct-01 04:33N 35°18' E 139°44'1211.6
2016-Oct-01 03:34N 35°29' E 139°48'2 0.6
2016-Oct-01 00:32N 35°31' E 139°46'3 1.6
2016-Sep-30 22:32N 35°30' E 139°50'0 0.0
2016-Sep-30 20:32N 35°30' E 139°50'0 0.0
2016-Sep-30 17:32N 35°30' E 139°50'0 0.0
2016-Sep-30 16:32N 35°30' E 139°50'0 0.0
2016-Sep-30 14:32N 35°30' E 139°50'0 0.0
2016-Sep-30 13:32N 35°30' E 139°50'0 0.0
2016-Sep-30 10:32N 35°30' E 139°50'0 0.0
2016-Sep-30 08:32N 35°30' E 139°50'0 0.0
2016-Sep-30 06:32N 35°30' E 139°50'1 0.5
2016-Sep-30 03:33N 35°29' E 139°49'1212.2
2016-Sep-30 02:33N 35°17' E 139°45'37 7.2
2016-Sep-29 21:29N 35°13' E 140°30'2914.3
2016-Sep-29 19:26N 35°37' E 140°51'  
2016-Sep-27 13:27N 35°23' E 140°38'41 3.2
2016-Sep-27 00:31N 35°29' E 139°48'16 0.4
2016-Sep-25 10:31N 35°13' E 139°46'1212.3
2016-Sep-25 09:33N 35°24' E 139°43'16 8.1
2016-Sep-25 07:32N 35°30' E 140°02'0 0.0
2016-Sep-25 04:29N 35°30' E 140°02'3 0.7
2016-Sep-25 00:30N 35°31' E 139°59'0 0.0
2016-Sep-24 22:33N 35°31' E 139°59'0 0.0
2016-Sep-24 21:12N 35°31' E 139°59'0 0.0
2016-Sep-24 19:32N 35°31' E 139°59'0 0.0
2016-Sep-24 18:27N 35°31' E 139°59'0 0.0
2016-Sep-24 17:32N 35°31' E 139°59'0 0.0
2016-Sep-24 16:32N 35°31' E 139°59'0 0.0
2016-Sep-24 14:29N 35°31' E 139°59'0 0.0
2016-Sep-24 12:32N 35°31' E 139°59'0 0.0
2016-Sep-24 10:29N 35°31' E 139°59'0 0.0
2016-Sep-24 09:20N 35°31' E 139°59'0 0.0
2016-Sep-24 03:32N 35°31' E 139°59'0 0.0
2016-Sep-24 02:29N 35°31' E 139°59'0 0.0
2016-Sep-24 01:33N 35°31' E 139°59'1312.6
2016-Sep-24 00:33N 35°24' E 139°46'  

Dump ship's entire track history